Time;durP1;ratioP1;P1;durP2;ratioP2;P2;SDS_P1;SDS_P2;PMS_P1;PMS_P2;Temp;Humidity;BMP_temperature;BMP_pressure;BME280_temperature;BME280_humidity;BME280_pressure;Samples;Min_cycle;Max_cycle;Signal;HPM_P1;HPM_P2
2022/02/24 00:00:08;;;;;;;15.05;3.50;;;;;;;13.23;37.64;100442.03;4935939;29;20501;-81
2022/02/24 00:02:33;;;;;;;9.85;2.75;;;;;;;13.16;37.72;100447.25;4935784;29;20067;-81
2022/02/24 00:04:59;;;;;;;10.13;2.83;;;;;;;13.29;37.43;100443.41;4917497;29;20105;-80
2022/02/24 00:07:25;;;;;;;10.25;4.03;;;;;;;13.09;37.62;100424.25;4918021;29;20122;-81
2022/02/24 00:09:51;;;;;;;8.05;2.63;;;;;;;13.27;37.51;100425.69;4934565;29;20478;-82
2022/02/24 00:12:17;;;;;;;9.60;2.30;;;;;;;13.30;37.44;100423.09;4935710;29;20034;-80
2022/02/24 00:14:42;;;;;;;10.18;2.10;;;;;;;13.34;37.51;100423.19;4935739;29;20467;-81
2022/02/24 00:17:08;;;;;;;9.52;3.10;;;;;;;13.45;37.36;100429.03;4935660;29;20462;-81
2022/02/24 00:19:34;;;;;;;7.57;2.03;;;;;;;13.41;37.22;100414.41;4934432;29;20031;-81
2022/02/24 00:22:00;;;;;;;13.50;3.22;;;;;;;13.48;37.72;100420.16;4935629;29;20386;-81
2022/02/24 00:24:25;;;;;;;11.43;3.22;;;;;;;13.46;37.49;100411.47;4935589;29;20023;-81
2022/02/24 00:26:51;;;;;;;10.07;2.60;;;;;;;13.42;37.52;100413.28;4934188;29;20028;-81
2022/02/24 00:29:17;;;;;;;12.73;3.13;;;;;;;13.62;37.32;100400.63;4918468;29;20036;-81
2022/02/24 00:31:43;;;;;;;8.57;2.15;;;;;;;13.38;37.81;100406.88;4935399;29;20103;-81
2022/02/24 00:34:09;;;;;;;8.48;2.78;;;;;;;13.48;37.71;100393.50;4935465;29;20034;-81
2022/02/24 00:36:35;;;;;;;14.95;3.13;;;;;;;13.56;37.53;100402.78;4918413;29;20118;-81
2022/02/24 00:39:00;;;;;;;10.68;2.53;;;;;;;13.55;37.57;100401.19;4918432;29;20028;-80
2022/02/24 00:41:26;;;;;;;11.93;2.90;;;;;;;13.53;37.89;100404.28;4918317;29;20035;-81
2022/02/24 00:43:51;;;;;;;16.23;3.40;;;;;;;13.59;37.82;100394.66;4918313;29;20063;-80
2022/02/24 00:46:17;;;;;;;11.13;3.35;;;;;;;13.43;38.22;100398.41;4935407;29;20070;-80
2022/02/24 00:48:43;;;;;;;11.43;2.50;;;;;;;13.64;38.07;100387.34;4934105;29;20494;-81
2022/02/24 00:51:08;;;;;;;11.65;2.90;;;;;;;13.40;38.49;100388.13;4935301;29;20118;-81
2022/02/24 00:53:34;;;;;;;11.93;3.50;;;;;;;13.63;37.84;100392.03;4934069;29;20482;-81
2022/02/24 00:55:59;;;;;;;10.38;3.60;;;;;;;13.73;37.88;100379.78;4935267;29;20032;-81
2022/02/24 00:58:26;;;;;;;13.23;3.15;;;;;;;13.56;38.61;100383.56;4918200;29;20043;-81
2022/02/24 01:00:53;;;;;;;16.83;3.60;;;;;;;13.65;38.47;100378.75;4918224;29;20031;-81
2022/02/24 01:03:18;;;;;;;13.68;2.58;;;;;;;13.55;38.59;100369.03;4918086;29;20118;-81
2022/02/24 01:05:44;;;;;;;15.18;2.92;;;;;;;13.73;38.15;100358.63;4935033;29;20127;-81
2022/02/24 01:08:10;;;;;;;9.85;3.13;;;;;;;13.54;38.77;100361.16;4917963;29;20047;-81
2022/02/24 01:10:35;;;;;;;13.93;3.20;;;;;;;13.46;38.92;100362.06;4935149;29;20111;-81
2022/02/24 01:13:01;;;;;;;13.27;3.03;;;;;;;13.54;38.70;100353.72;4933873;29;20079;-81
2022/02/24 01:15:27;;;;;;;14.32;3.50;;;;;;;13.60;38.64;100352.34;4933800;29;20043;-81
2022/02/24 01:17:52;;;;;;;16.50;4.32;;;;;;;13.74;38.36;100343.75;4935653;29;20091;-81
2022/02/24 01:20:18;;;;;;;11.98;2.90;;;;;;;13.69;38.45;100329.47;4921742;29;20032;-81
2022/02/24 01:22:43;;;;;;;13.68;3.90;;;;;;;13.59;38.96;100327.97;4938784;29;20032;-81
2022/02/24 01:25:09;;;;;;;13.05;4.35;;;;;;;13.45;39.09;100333.81;4921595;29;20111;-81
2022/02/24 01:27:35;;;;;;;18.02;5.30;;;;;;;13.48;39.02;100324.88;4921517;29;20115;-81
2022/02/24 01:30:00;;;;;;;12.30;3.20;;;;;;;13.44;38.83;100320.41;4921447;29;20502;-81
2022/02/24 01:32:26;;;;;;;12.73;3.88;;;;;;;13.10;39.36;100324.34;4937421;29;20083;-80
2022/02/24 01:34:58;;;;;;;15.95;3.75;;;;;;;13.36;38.79;100322.13;4937369;29;20119;-80
2022/02/24 01:37:25;;;;;;;12.95;3.28;;;;;;;13.30;38.61;100316.06;4921549;29;20505;-81
2022/02/24 01:39:51;;;;;;;14.10;3.65;;;;;;;13.21;38.43;100312.59;4937231;29;20035;-81
2022/02/24 01:42:16;;;;;;;12.98;3.05;;;;;;;13.21;38.29;100306.31;4921390;29;20031;-81
2022/02/24 01:44:45;;;;;;;11.98;3.08;;;;;;;13.22;37.91;100316.16;4921249;29;20414;-81
2022/02/24 01:47:12;;;;;;;13.38;2.95;;;;;;;13.21;37.96;100315.34;4938399;29;20471;-81
2022/02/24 01:49:38;;;;;;;13.88;2.58;;;;;;;13.21;37.50;100307.13;4938358;29;20036;-82
2022/02/24 01:52:05;;;;;;;13.77;2.95;;;;;;;13.24;37.16;100314.69;4921261;29;20083;-81
2022/02/24 01:54:33;;;;;;;12.13;2.10;;;;;;;13.00;37.29;100331.06;4921206;29;20498;-81
2022/02/24 01:56:59;;;;;;;8.90;2.53;;;;;;;13.24;36.84;100313.88;4938225;29;20067;-82
2022/02/24 01:59:25;;;;;;;7.70;1.90;;;;;;;12.66;37.37;100313.81;4921101;29;20043;-81
2022/02/24 02:01:51;;;;;;;7.13;2.28;;;;;;;12.80;37.33;100324.50;4920907;29;20071;-81
2022/02/24 02:04:16;;;;;;;13.05;2.45;;;;;;;12.88;37.35;100328.28;4920817;29;20059;-81
2022/02/24 02:06:42;;;;;;;6.88;2.05;;;;;;;12.70;37.78;100312.03;4920974;29;20042;-81
2022/02/24 02:09:09;;;;;;;14.27;4.18;;;;;;;12.94;37.25;100325.00;4920918;29;20685;-81
2022/02/24 02:11:35;;;;;;;7.40;1.90;;;;;;;12.97;37.25;100326.25;4938009;29;20055;-81
2022/02/24 02:14:02;;;;;;;9.73;2.60;;;;;;;12.99;37.48;100329.44;4937866;29;20505;-81
2022/02/24 02:16:27;;;;;;;6.03;2.30;;;;;;;13.26;37.13;100312.41;4937869;29;20057;-81
2022/02/24 02:18:53;;;;;;;9.57;3.03;;;;;;;13.05;37.80;100312.44;4920680;29;20052;-81
2022/02/24 02:21:18;;;;;;;13.82;2.63;;;;;;;13.06;37.80;100303.06;4937748;29;20031;-81
2022/02/24 02:23:44;;;;;;;12.20;2.25;;;;;;;13.14;37.87;100312.34;4936514;29;20035;-81
2022/02/24 02:26:10;;;;;;;13.20;2.63;;;;;;;13.31;37.56;100314.94;4920602;29;20068;-81
2022/02/24 02:28:36;;;;;;;11.25;3.17;;;;;;;13.17;37.97;100303.44;4937529;29;20036;-81
2022/02/24 02:31:01;;;;;;;8.43;2.15;;;;;;;13.12;38.17;100278.97;4936775;29;20567;-81
2022/02/24 02:33:27;;;;;;;7.45;2.28;;;;;;;13.26;38.05;100270.44;4937560;29;20114;-81
2022/02/24 02:35:53;;;;;;;6.75;2.55;;;;;;;13.07;38.52;100279.19;4936285;29;20036;-81
2022/02/24 02:38:19;;;;;;;6.05;1.85;;;;;;;13.19;38.20;100281.94;4920354;29;20068;-81
2022/02/24 02:40:44;;;;;;;5.50;1.65;;;;;;;13.14;38.32;100289.59;4937436;29;20032;-81
2022/02/24 02:43:11;;;;;;;12.27;1.80;;;;;;;12.78;39.08;100266.47;4920316;29;20042;-81
2022/02/24 02:45:37;;;;;;;9.05;1.67;;;;;;;12.96;38.59;100275.28;4937383;29;20486;-81
2022/02/24 02:48:05;;;;;;;6.88;1.80;;;;;;;12.81;38.75;100256.75;4920157;29;20039;-81
2022/02/24 02:50:32;;;;;;;5.88;1.60;;;;;;;12.80;38.65;100263.38;4920170;29;20086;-81
2022/02/24 02:53:01;;;;;;;5.50;1.67;;;;;;;12.57;38.89;100263.78;4937238;29;20035;-81
2022/02/24 02:55:26;;;;;;;6.28;1.20;;;;;;;12.70;38.57;100253.66;4920178;29;20032;-81
2022/02/24 02:57:52;;;;;;;7.57;1.58;;;;;;;12.59;38.43;100239.56;4937236;29;20114;-81
2022/02/24 03:00:18;;;;;;;4.47;1.20;;;;;;;12.42;38.67;100242.47;4919902;29;20035;-80
2022/02/24 03:02:44;;;;;;;6.90;1.98;;;;;;;12.39;38.72;100235.75;4920022;29;20394;-81
2022/02/24 03:05:10;;;;;;;6.97;1.50;;;;;;;12.53;38.35;100240.09;4936909;29;20056;-81
2022/02/24 03:07:35;;;;;;;2.85;0.93;;;;;;;12.38;38.62;100238.81;4935541;29;20035;-81
2022/02/24 03:10:04;;;;;;;5.78;1.23;;;;;;;12.38;38.28;100236.06;4919852;29;20024;-81
2022/02/24 03:12:35;;;;;;;4.45;1.35;;;;;;;12.41;38.24;100241.69;4919766;29;20102;-81
2022/02/24 03:15:01;;;;;;;4.05;1.52;;;;;;;12.58;38.05;100240.69;4936874;29;20027;-81
2022/02/24 03:17:27;;;;;;;4.80;1.73;;;;;;;12.61;37.80;100231.78;4935548;29;20034;-81
2022/02/24 03:19:52;;;;;;;5.10;1.00;;;;;;;12.62;37.94;100230.69;4919631;29;20118;-81
2022/02/24 03:22:18;;;;;;;5.20;1.70;;;;;;;12.57;38.08;100232.81;4919590;29;20032;-80
2022/02/24 03:24:43;;;;;;;2.28;0.80;;;;;;;12.69;37.83;100233.63;4936656;29;20478;-81
2022/02/24 03:27:09;;;;;;;2.72;0.98;;;;;;;12.60;38.21;100224.72;4936448;29;20447;-81
2022/02/24 03:29:34;;;;;;;8.00;1.17;;;;;;;12.80;37.93;100222.25;4919526;29;20028;-81
2022/02/24 03:32:01;;;;;;;1.63;0.82;;;;;;;12.76;37.93;100222.13;4935303;29;20026;-81
2022/02/24 03:34:27;;;;;;;6.32;1.10;;;;;;;12.55;38.43;100215.94;4919430;29;20038;-81
2022/02/24 03:36:52;;;;;;;4.05;1.10;;;;;;;12.61;38.47;100209.88;4919341;29;20557;-81
2022/02/24 03:39:18;;;;;;;4.00;1.23;;;;;;;12.75;38.13;100207.63;4936408;29;20107;-81
2022/02/24 03:41:44;;;;;;;3.13;1.10;;;;;;;12.87;37.66;100206.03;4919245;29;20036;-81
2022/02/24 03:44:09;;;;;;;3.92;1.10;;;;;;;12.92;37.86;100192.09;4935060;29;20030;-81
2022/02/24 03:46:35;;;;;;;3.53;1.15;;;;;;;12.82;38.19;100185.13;4919082;29;20501;-81
2022/02/24 03:49:00;;;;;;;6.80;1.75;;;;;;;12.91;38.03;100190.50;4934886;29;20059;-81
2022/02/24 03:51:26;;;;;;;3.45;1.10;;;;;;;12.93;38.02;100180.00;4918953;29;20027;-81
2022/02/24 03:53:52;;;;;;;7.30;1.55;;;;;;;12.86;38.49;100166.06;4936124;29;20031;-81
2022/02/24 03:56:17;;;;;;;4.82;1.30;;;;;;;12.90;38.42;100175.19;4934868;29;20028;-81
2022/02/24 03:58:45;;;;;;;3.92;1.30;;;;;;;12.78;38.51;100192.44;4935655;29;20035;-81
2022/02/24 04:01:11;;;;;;;7.78;2.22;;;;;;;12.99;38.32;100187.63;4935973;29;20054;-81
2022/02/24 04:03:37;;;;;;;7.80;1.77;;;;;;;12.89;38.51;100190.03;4935981;29;20023;-81
2022/02/24 04:06:02;;;;;;;7.80;1.63;;;;;;;12.86;38.58;100188.78;4918629;29;20051;-81
2022/02/24 04:08:28;;;;;;;8.02;1.75;;;;;;;12.72;38.78;100185.56;4918709;29;20027;-82
2022/02/24 04:10:55;;;;;;;4.85;1.60;;;;;;;12.60;39.02;100182.81;4918715;29;20028;-81
2022/02/24 04:13:21;;;;;;;3.13;1.10;;;;;;;12.70;38.71;100191.41;4934511;29;20034;-81
2022/02/24 04:15:47;;;;;;;4.13;1.40;;;;;;;12.57;39.07;100192.53;4934580;29;20023;-81
2022/02/24 04:18:13;;;;;;;5.13;1.75;;;;;;;12.54;38.61;100187.69;4935715;29;20020;-81
2022/02/24 04:20:39;;;;;;;6.30;1.42;;;;;;;12.52;39.13;100178.22;4918653;29;20031;-81
2022/02/24 04:23:05;;;;;;;3.95;1.17;;;;;;;12.60;39.08;100182.81;4918595;29;20038;-81
2022/02/24 04:25:30;;;;;;;7.10;1.40;;;;;;;12.45;39.05;100185.06;4918599;29;20024;-81
2022/02/24 04:27:56;;;;;;;3.92;1.35;;;;;;;12.44;39.08;100183.47;4918469;29;20031;-81
2022/02/24 04:30:22;;;;;;;7.53;2.33;;;;;;;12.37;39.11;100180.47;4935554;29;20111;-82
2022/02/24 04:32:48;;;;;;;5.38;1.23;;;;;;;12.37;39.05;100185.16;4918486;29;20035;-81
2022/02/24 04:35:15;;;;;;;3.25;1.33;;;;;;;12.12;39.53;100193.28;4918507;29;20083;-81
2022/02/24 04:37:41;;;;;;;5.10;1.40;;;;;;;12.20;39.27;100194.34;4935532;29;20034;-81
2022/02/24 04:40:08;;;;;;;5.80;1.20;;;;;;;12.04;39.65;100191.44;4934122;29;20027;-81
2022/02/24 04:42:34;;;;;;;4.53;1.30;;;;;;;12.13;39.38;100196.81;4918340;29;20502;-81
2022/02/24 04:45:00;;;;;;;4.30;1.30;;;;;;;11.86;40.06;100187.22;4918317;29;20032;-81
2022/02/24 04:47:26;;;;;;;8.57;3.47;;;;;;;12.14;39.01;100184.72;4918226;29;20040;-81
2022/02/24 04:49:52;;;;;;;4.20;1.35;;;;;;;12.09;39.19;100185.75;4935315;29;20391;-81
2022/02/24 04:52:18;;;;;;;4.85;1.55;;;;;;;11.88;39.87;100196.72;4918608;29;20027;-81
2022/02/24 04:54:44;;;;;;;3.58;1.17;;;;;;;11.89;39.68;100183.84;4924340;29;20064;-81
2022/02/24 04:57:10;;;;;;;3.63;1.17;;;;;;;12.06;39.42;100183.69;4941628;29;20032;-81
2022/02/24 04:59:36;;;;;;;6.60;1.42;;;;;;;12.02;39.52;100187.44;4941606;29;20034;-81
2022/02/24 05:02:02;;;;;;;5.75;1.33;;;;;;;11.95;39.75;100190.72;4924519;29;20031;-81
2022/02/24 05:04:27;;;;;;;11.88;3.22;;;;;;;11.67;40.36;100190.41;4921062;29;20107;-81
2022/02/24 05:06:53;;;;;;;4.20;1.58;;;;;;;11.86;39.96;100187.22;4922504;29;20040;-81
2022/02/24 05:09:18;;;;;;;4.78;1.50;;;;;;;11.78;40.27;100188.88;4921337;29;20475;-81
2022/02/24 05:11:44;;;;;;;9.25;1.50;;;;;;;11.84;40.17;100200.44;4922513;29;20087;-80
2022/02/24 05:14:09;;;;;;;5.30;1.48;;;;;;;11.85;40.03;100196.56;4922501;29;20035;-81
2022/02/24 05:16:35;;;;;;;11.38;1.60;;;;;;;11.90;39.89;100199.13;4921271;29;20504;-81
2022/02/24 05:19:01;;;;;;;6.95;2.00;;;;;;;11.91;39.92;100195.25;4922493;29;20091;-81
2022/02/24 05:21:27;;;;;;;10.82;1.75;;;;;;;11.74;40.29;100200.84;4922422;29;20500;-80
2022/02/24 05:23:52;;;;;;;11.18;1.45;;;;;;;11.65;40.41;100201.69;4921161;29;20046;-81
2022/02/24 05:26:19;;;;;;;3.97;1.48;;;;;;;11.89;40.08;100213.94;4921153;29;20028;-81
2022/02/24 05:28:46;;;;;;;6.60;2.17;;;;;;;11.87;40.09;100217.03;4921065;29;20036;-81
2022/02/24 05:31:11;;;;;;;8.00;1.50;;;;;;;11.95;39.88;100209.88;4921098;29;20096;-80
2022/02/24 05:33:37;;;;;;;5.95;1.60;;;;;;;11.86;39.95;100211.88;4922345;29;20032;-81
2022/02/24 05:36:04;;;;;;;7.80;2.17;;;;;;;12.07;39.78;100203.63;4922417;29;20442;-81
2022/02/24 05:38:30;;;;;;;5.20;1.65;;;;;;;12.12;39.70;100198.75;4921022;29;20118;-82
2022/02/24 05:40:55;;;;;;;9.02;1.98;;;;;;;12.03;39.92;100191.78;4921102;29;20087;-81
2022/02/24 05:43:21;;;;;;;7.15;1.92;;;;;;;12.18;39.52;100183.72;4921085;29;20028;-82
2022/02/24 05:45:47;;;;;;;7.75;1.65;;;;;;;12.01;39.98;100192.09;4920987;29;20032;-82
2022/02/24 05:48:13;;;;;;;6.97;1.52;;;;;;;12.10;39.88;100190.09;4920898;29;20286;-81
2022/02/24 05:50:39;;;;;;;10.52;2.45;;;;;;;12.04;39.82;100190.63;4922012;29;20395;-81
2022/02/24 05:53:05;;;;;;;7.95;1.60;;;;;;;12.05;39.79;100195.78;4920942;29;20414;-81
2022/02/24 05:55:32;;;;;;;8.40;1.75;;;;;;;11.82;40.27;100210.94;4920699;29;20038;-82
2022/02/24 05:57:58;;;;;;;5.35;1.55;;;;;;;11.90;40.00;100197.19;4922760;29;20047;-81
2022/02/24 06:00:24;;;;;;;8.43;1.80;;;;;;;11.80;40.28;100196.75;4920726;29;20032;-82
2022/02/24 06:02:50;;;;;;;4.22;1.45;;;;;;;11.90;39.88;100202.66;4920891;29;20036;-82
2022/02/24 06:05:16;;;;;;;5.47;1.27;;;;;;;11.85;40.10;100215.75;4929545;29;20058;-82
2022/02/24 06:07:43;;;;;;;5.47;1.63;;;;;;;11.67;40.54;100218.59;4920913;29;20505;-82
2022/02/24 06:10:11;;;;;;;8.32;1.25;;;;;;;11.53;41.05;100217.22;4937917;29;20474;-82
2022/02/24 06:12:36;;;;;;;4.78;1.25;;;;;;;11.59;40.70;100227.66;4920834;29;20099;-82
2022/02/24 06:15:06;;;;;;;3.58;1.20;;;;;;;11.66;40.74;100216.97;4937910;29;20032;-82
2022/02/24 06:17:32;;;;;;;6.57;1.30;;;;;;;11.45;41.22;100212.63;4937880;29;20436;-81
2022/02/24 06:19:58;;;;;;;5.05;1.17;;;;;;;11.42;41.25;100216.03;4920764;29;20027;-82
2022/02/24 06:22:24;;;;;;;6.15;2.20;;;;;;;11.45;41.01;100218.88;4937944;29;20057;-81
2022/02/24 06:24:51;;;;;;;4.67;1.00;;;;;;;11.62;40.79;100226.19;4920604;29;20468;-82
2022/02/24 06:27:20;;;;;;;5.68;1.30;;;;;;;11.42;40.97;100225.03;4937629;29;20115;-82
2022/02/24 06:29:46;;;;;;;3.40;0.93;;;;;;;11.50;40.96;100232.38;4920745;29;20122;-82
2022/02/24 06:32:13;;;;;;;2.20;0.90;;;;;;;11.06;41.99;100226.34;4937616;29;20270;-82
2022/02/24 06:34:41;;;;;;;3.05;0.98;;;;;;;11.27;41.27;100231.06;4937669;29;20474;-81
2022/02/24 06:37:07;;;;;;;5.32;2.08;;;;;;;11.21;41.68;100240.59;4937528;29;20470;-82
2022/02/24 06:39:33;;;;;;;3.05;0.75;;;;;;;11.27;41.71;100250.22;4920033;29;20046;-81
2022/02/24 06:42:00;;;;;;;1.88;1.00;;;;;;;11.11;42.62;100267.16;4935841;29;20130;-82
2022/02/24 06:44:26;;;;;;;1.85;0.75;;;;;;;11.15;42.63;100274.72;4945332;29;20394;-80
2022/02/24 06:46:51;;;;;;;2.60;0.70;;;;;;;11.08;42.90;100276.00;4919897;29;20034;-81
2022/02/24 06:49:17;;;;;;;2.83;0.70;;;;;;;11.14;42.88;100276.63;4920952;29;20028;-82
2022/02/24 06:51:42;;;;;;;5.47;0.90;;;;;;;11.34;42.31;100280.59;4933030;29;20028;-82
2022/02/24 06:54:08;;;;;;;2.58;0.98;;;;;;;11.34;42.51;100262.25;4934327;29;20032;-81
2022/02/24 06:56:34;;;;;;;9.45;1.85;;;;;;;11.07;43.05;100273.63;4936922;29;20032;-81
2022/02/24 06:58:59;;;;;;;1.83;0.65;;;;;;;11.22;42.92;100270.34;4936911;29;20039;-81
2022/02/24 07:01:25;;;;;;;3.17;1.42;;;;;;;11.37;42.52;100279.91;4936973;29;20114;-81
2022/02/24 07:03:51;;;;;;;4.30;0.88;;;;;;;11.44;42.45;100279.41;4936972;29;20487;-81
2022/02/24 07:06:17;;;;;;;3.40;0.80;;;;;;;11.49;42.46;100281.97;4934933;29;20138;-81
2022/02/24 07:08:43;;;;;;;5.32;1.25;;;;;;;11.36;42.93;100279.13;4936732;29;20067;-82
2022/02/24 07:11:08;;;;;;;3.20;1.23;;;;;;;11.57;42.54;100287.38;4935647;29;20126;-82
2022/02/24 07:13:34;;;;;;;2.58;0.93;;;;;;;11.56;42.47;100299.47;4935455;29;20192;-82
2022/02/24 07:16:00;;;;;;;1.13;0.68;;;;;;;11.46;42.73;100290.81;4935727;29;20040;-81
2022/02/24 07:18:25;;;;;;;4.18;1.05;;;;;;;11.46;43.21;100288.09;4922003;29;20374;-83
2022/02/24 07:20:51;;;;;;;2.38;1.00;;;;;;;11.48;42.82;100291.28;4925281;29;20028;-83
2022/02/24 07:23:16;;;;;;;2.65;1.02;;;;;;;11.56;42.42;100285.78;4935164;29;20027;-82
2022/02/24 07:25:42;;;;;;;7.68;1.63;;;;;;;11.73;41.93;100279.41;4919206;29;20031;-84
2022/02/24 07:28:08;;;;;;;3.50;1.10;;;;;;;11.91;41.59;100258.22;4936546;29;20035;-82
2022/02/24 07:30:35;;;;;;;4.47;1.15;;;;;;;11.84;41.85;100252.47;4933891;29;20032;-82
2022/02/24 07:33:01;;;;;;;4.70;0.98;;;;;;;11.58;42.27;100288.19;4920982;29;20038;-84
2022/02/24 07:35:26;;;;;;;1.73;0.95;;;;;;;11.49;42.35;100306.59;4921443;29;20394;-82
2022/02/24 07:37:52;;;;;;;3.33;1.15;;;;;;;11.47;42.54;100297.88;4922803;29;20054;-83
2022/02/24 07:40:18;;;;;;;3.42;1.08;;;;;;;11.67;41.83;100291.69;4904957;29;20046;-86
2022/02/24 07:42:44;;;;;;;3.83;0.93;;;;;;;11.35;42.63;100284.94;4922103;29;20044;-82
2022/02/24 07:45:10;;;;;;;3.40;0.85;;;;;;;11.55;42.12;100295.09;4905259;29;20035;-81
2022/02/24 07:47:35;;;;;;;2.42;1.40;;;;;;;11.33;42.93;100292.63;4921783;29;20072;-78
2022/02/24 07:50:01;;;;;;;4.03;0.75;;;;;;;11.47;42.54;100287.75;4921702;29;20036;-78
2022/02/24 07:52:27;;;;;;;2.60;1.10;;;;;;;11.41;42.75;100283.63;4921912;29;20024;-78
2022/02/24 07:54:54;;;;;;;5.40;0.88;;;;;;;11.60;42.48;100300.41;4921186;29;20042;-78
2022/02/24 07:57:21;;;;;;;4.47;0.95;;;;;;;11.49;42.63;100306.59;4921504;29;20170;-80
2022/02/24 07:59:47;;;;;;;0.63;0.50;;;;;;;11.14;43.45;100322.31;4904346;29;20748;-80
2022/02/24 08:02:12;;;;;;;2.03;1.50;;;;;;;11.53;42.52;100313.78;4921128;29;20032;-81
2022/02/24 08:04:38;;;;;;;4.82;1.23;;;;;;;11.42;42.81;100323.50;4919746;29;20058;-80
2022/02/24 08:07:03;;;;;;;0.93;0.45;;;;;;;11.36;42.91;100325.63;4920889;29;20097;-81
2022/02/24 08:09:29;;;;;;;4.32;1.05;;;;;;;11.40;42.89;100320.28;4920514;29;20036;-80
2022/02/24 08:14:39;;;;;;;5.72;1.50;;;;;;;11.48;42.70;100337.78;4924101;29;20446;-81
2022/02/24 08:17:05;;;;;;;2.97;0.70;;;;;;;11.63;42.43;100334.50;4903192;29;20028;-80
2022/02/24 08:19:31;;;;;;;1.48;0.80;;;;;;;11.42;42.86;100348.13;4920215;29;20035;-80
2022/02/24 08:21:57;;;;;;;3.05;0.93;;;;;;;11.51;42.73;100348.91;4903682;29;20063;-80
2022/02/24 08:24:22;;;;;;;2.42;1.65;;;;;;;11.36;43.12;100352.97;4904633;29;20257;-80
2022/02/24 08:26:48;;;;;;;1.83;0.73;;;;;;;11.19;43.46;100355.78;4929224;29;20043;-85
2022/02/24 08:29:13;;;;;;;1.50;0.70;;;;;;;11.06;43.80;100365.78;4935769;29;20039;-80
2022/02/24 08:31:39;;;;;;;6.18;1.00;;;;;;;11.42;42.88;100361.81;4935785;29;20028;-84
2022/02/24 08:34:05;;;;;;;4.13;1.90;;;;;;;11.54;42.90;100358.38;4935903;29;20505;-82
2022/02/24 08:36:30;;;;;;;5.43;2.55;;;;;;;11.66;42.50;100380.38;4934246;29;20398;-83
2022/02/24 08:38:56;;;;;;;14.07;9.23;;;;;;;11.63;42.66;100378.28;4934122;29;20171;-82
2022/02/24 08:41:23;;;;;;;4.40;2.45;;;;;;;11.74;42.47;100374.06;4935165;29;20028;-82
2022/02/24 08:43:48;;;;;;;1.33;1.00;;;;;;;11.62;42.76;100393.91;4933879;29;20609;-82
2022/02/24 08:46:14;;;;;;;1.73;1.25;;;;;;;11.68;42.86;100395.34;4935319;29;20060;-80
2022/02/24 08:48:41;;;;;;;4.70;1.52;;;;;;;11.69;43.02;100398.88;4934866;29;20038;-80
2022/02/24 08:51:07;;;;;;;3.25;1.20;;;;;;;11.92;42.63;100410.38;4921904;29;20030;-80
2022/02/24 08:53:32;;;;;;;4.40;2.85;;;;;;;11.92;42.70;100404.91;4932969;29;20031;-79
2022/02/24 08:55:58;;;;;;;3.42;1.83;;;;;;;11.54;43.29;100410.34;4932875;29;20178;-81
2022/02/24 08:58:23;;;;;;;3.53;2.90;;;;;;;11.92;42.75;100377.53;4933131;29;20394;-80
2022/02/24 09:00:49;;;;;;;2.47;1.30;;;;;;;12.07;42.10;100385.19;4931796;29;20032;-81
2022/02/24 09:03:15;;;;;;;3.25;2.35;;;;;;;12.04;42.08;100385.06;4932965;29;20561;-80
2022/02/24 09:05:42;;;;;;;3.78;2.58;;;;;;;12.13;41.92;100386.59;4931427;29;20068;-79
2022/02/24 09:08:07;;;;;;;4.32;1.88;;;;;;;12.15;41.81;100383.53;4932281;29;20585;-84
2022/02/24 09:10:33;;;;;;;3.97;1.05;;;;;;;12.25;41.74;100385.91;4920706;29;20072;-84
2022/02/24 09:12:59;;;;;;;5.68;2.75;;;;;;;12.55;41.25;100397.59;4933586;28;20051;-84
2022/02/24 09:15:26;;;;;;;3.72;2.90;;;;;;;12.40;41.52;100403.69;4932859;29;20550;-80
2022/02/24 09:17:53;;;;;;;2.53;0.95;;;;;;;12.47;41.28;100412.97;4932858;28;20102;-81
2022/02/24 09:20:19;;;;;;;2.58;0.82;;;;;;;11.82;42.24;100428.00;4917276;29;20547;-82
2022/02/24 09:22:44;;;;;;;4.18;1.30;;;;;;;11.85;41.92;100418.31;4934176;29;20063;-79
2022/02/24 09:25:10;;;;;;;2.88;0.90;;;;;;;11.73;41.52;100431.88;4916513;29;20028;-81
2022/02/24 09:27:36;;;;;;;5.55;1.83;;;;;;;11.77;41.19;100427.34;4932699;29;20106;-81
2022/02/24 09:30:05;;;;;;;3.00;1.27;;;;;;;11.49;41.54;100460.59;4933373;29;20031;-87
2022/02/24 09:32:32;;;;;;;3.10;0.70;;;;;;;11.43;41.44;100453.69;4931881;29;20027;-87
2022/02/24 09:34:59;;;;;;;2.40;0.80;;;;;;;10.98;42.43;100465.00;4933988;29;20475;-84
2022/02/24 09:37:25;;;;;;;2.95;0.98;;;;;;;11.26;42.03;100470.13;4932711;29;20023;-84
2022/02/24 09:39:50;;;;;;;1.05;0.70;;;;;;;11.45;41.71;100459.63;4935908;29;20084;-80
2022/02/24 09:42:16;;;;;;;2.22;1.00;;;;;;;11.09;42.34;100462.75;4921006;29;20035;-87
2022/02/24 09:44:42;;;;;;;1.58;1.00;;;;;;;11.57;41.52;100451.56;4936233;29;20046;-76
2022/02/24 09:47:09;;;;;;;2.33;1.65;;;;;;;11.84;41.25;100444.88;4939343;29;20051;-83
2022/02/24 09:49:35;;;;;;;4.50;1.98;;;;;;;11.97;40.99;100461.44;4937521;28;20044;-78
2022/02/24 09:52:01;;;;;;;1.23;0.73;;;;;;;11.61;41.45;100451.72;4938202;29;20054;-76
2022/02/24 09:54:26;;;;;;;5.05;4.25;;;;;;;11.85;41.18;100457.44;4937751;28;20043;-82
2022/02/24 09:56:54;;;;;;;3.65;1.20;;;;;;;12.02;40.87;100448.38;4937376;29;20035;-75
2022/02/24 09:59:19;;;;;;;2.22;1.35;;;;;;;12.09;40.56;100454.13;4937446;29;20061;-82
2022/02/24 10:01:46;;;;;;;4.55;2.00;;;;;;;12.31;40.32;100461.25;4937198;29;20476;-76
2022/02/24 10:04:12;;;;;;;5.20;2.85;;;;;;;12.31;40.42;100474.16;4936858;29;20039;-75
2022/02/24 10:06:40;;;;;;;3.70;2.70;;;;;;;12.58;40.00;100461.91;4936733;29;20031;-75
2022/02/24 10:09:08;;;;;;;2.60;1.30;;;;;;;12.65;39.89;100471.19;4936571;29;20055;-77
2022/02/24 10:11:35;;;;;;;10.50;4.78;;;;;;;12.58;39.95;100473.66;4936571;29;20031;-74
2022/02/24 10:14:12;;;;;;;3.10;2.72;;;;;;;12.47;39.72;100486.97;4936976;29;20044;-75
2022/02/24 10:16:59;;;;;;;3.42;1.20;;;;;;;12.37;40.37;100497.47;4936666;29;20031;-75
2022/02/24 10:19:45;;;;;;;3.22;0.98;;;;;;;12.84;39.36;100486.38;4937260;29;20047;-83
2022/02/24 10:22:19;;;;;;;6.15;2.25;;;;;;;13.13;38.77;100493.72;4937335;29;20549;-77
2022/02/24 10:25:16;;;;;;;13.00;8.52;;;;;;;13.05;38.54;100498.16;4936890;29;20469;-85
2022/02/24 10:27:44;;;;;;;6.80;2.95;;;;;;;12.34;39.61;100503.63;4935172;29;20055;-84
2022/02/24 10:30:14;;;;;;;2.95;1.08;;;;;;;12.71;38.90;100486.31;4934137;28;20044;-80
2022/02/24 10:32:57;;;;;;;3.78;1.10;;;;;;;11.83;40.34;100513.66;4935730;29;20379;-82
2022/02/24 10:35:38;;;;;;;4.55;1.25;;;;;;;11.90;39.91;100506.56;4935712;29;20046;-75
2022/02/24 10:38:12;;;;;;;4.40;1.30;;;;;;;12.45;39.32;100515.81;4934834;29;20032;-71
2022/02/24 10:40:45;;;;;;;4.45;1.45;;;;;;;12.82;38.85;100508.66;4935390;29;20391;-82
2022/02/24 10:43:21;;;;;;;4.35;1.60;;;;;;;12.66;39.46;100519.41;4936438;29;20090;-83
2022/02/24 10:46:17;;;;;;;3.53;1.30;;;;;;;12.96;39.00;100513.88;4936267;29;20396;-74
2022/02/24 10:48:54;;;;;;;8.13;2.70;;;;;;;13.35;38.57;100517.31;4936486;29;20059;-72
2022/02/24 10:51:25;;;;;;;7.72;2.10;;;;;;;13.19;39.03;100515.13;4935776;29;20518;-81
2022/02/24 10:54:13;;;;;;;5.60;1.85;;;;;;;13.22;38.85;100547.41;4936516;29;20387;-84
2022/02/24 10:56:41;;;;;;;6.20;1.40;;;;;;;13.51;38.27;100532.78;4936351;29;20103;-73
2022/02/24 10:59:08;;;;;;;5.70;1.38;;;;;;;13.48;38.05;100569.16;4936039;29;20036;-76
2022/02/24 11:01:35;;;;;;;4.03;1.30;;;;;;;12.73;38.86;100563.53;4935877;29;20083;-80
2022/02/24 11:04:03;;;;;;;5.15;1.70;;;;;;;12.96;38.73;100568.72;4936349;29;20431;-79
2022/02/24 11:06:36;;;;;;;7.25;1.67;;;;;;;13.29;38.20;100571.56;4936944;29;20119;-78
2022/02/24 11:09:05;;;;;;;7.80;1.55;;;;;;;13.41;38.03;100570.84;4936153;29;20074;-88
2022/02/24 11:11:33;;;;;;;7.40;1.80;;;;;;;13.48;37.71;100576.59;4935959;29;20048;-86
2022/02/24 11:14:01;;;;;;;8.25;1.40;;;;;;;13.19;37.98;100561.78;4936099;29;20463;-74
2022/02/24 11:16:28;;;;;;;8.10;1.50;;;;;;;12.89;38.10;100561.03;4934539;29;20052;-81
2022/02/24 11:18:57;;;;;;;6.57;1.60;;;;;;;12.95;37.83;100575.34;4936521;29;20039;-81
2022/02/24 11:21:23;;;;;;;13.45;2.25;;;;;;;13.48;37.16;100588.38;4944771;29;20284;-78
2022/02/24 11:23:51;;;;;;;10.27;1.95;;;;;;;13.33;37.48;100589.00;4938682;29;20031;-74